sensor_id;sensor_type;location;lat;lon;timestamp;P1;durP1;ratioP1;P2;durP2;ratioP2
78794;SDS011;68144;50.892;3.064;2024-01-15T00:00:19;13.00;;;4.70;;
78794;SDS011;68144;50.892;3.064;2024-01-15T00:00:50;5.40;;;3.40;;
78794;SDS011;68144;50.892;3.064;2024-01-15T00:01:21;7.10;;;4.00;;
78794;SDS011;68144;50.892;3.064;2024-01-15T00:01:51;8.60;;;3.80;;
78794;SDS011;68144;50.892;3.064;2024-01-15T00:02:22;5.20;;;3.50;;
78794;SDS011;68144;50.892;3.064;2024-01-15T00:02:52;7.50;;;3.70;;
78794;SDS011;68144;50.892;3.064;2024-01-15T00:03:23;8.20;;;4.00;;
78794;SDS011;68144;50.892;3.064;2024-01-15T00:03:53;6.90;;;3.60;;
78794;SDS011;68144;50.892;3.064;2024-01-15T00:04:24;8.20;;;4.60;;
78794;SDS011;68144;50.892;3.064;2024-01-15T00:04:55;6.70;;;4.10;;
78794;SDS011;68144;50.892;3.064;2024-01-15T00:05:25;5.60;;;3.70;;
78794;SDS011;68144;50.892;3.064;2024-01-15T00:05:56;6.90;;;3.10;;
78794;SDS011;68144;50.892;3.064;2024-01-15T00:06:26;6.80;;;3.60;;
78794;SDS011;68144;50.892;3.064;2024-01-15T00:06:58;6.10;;;3.60;;
78794;SDS011;68144;50.892;3.064;2024-01-15T00:07:29;7.20;;;3.90;;
78794;SDS011;68144;50.892;3.064;2024-01-15T00:07:59;6.20;;;3.50;;
78794;SDS011;68144;50.892;3.064;2024-01-15T00:08:30;7.20;;;3.70;;
78794;SDS011;68144;50.892;3.064;2024-01-15T00:09:00;4.80;;;3.50;;
78794;SDS011;68144;50.892;3.064;2024-01-15T00:09:30;6.70;;;3.70;;
78794;SDS011;68144;50.892;3.064;2024-01-15T00:10:01;5.30;;;3.80;;
78794;SDS011;68144;50.892;3.064;2024-01-15T00:10:32;7.40;;;4.10;;
78794;SDS011;68144;50.892;3.064;2024-01-15T00:11:02;5.60;;;3.40;;
78794;SDS011;68144;50.892;3.064;2024-01-15T00:11:33;7.30;;;3.70;;
78794;SDS011;68144;50.892;3.064;2024-01-15T00:12:04;6.40;;;3.90;;
78794;SDS011;68144;50.892;3.064;2024-01-15T00:12:34;6.80;;;3.60;;
78794;SDS011;68144;50.892;3.064;2024-01-15T00:13:05;6.60;;;3.90;;
78794;SDS011;68144;50.892;3.064;2024-01-15T00:13:36;6.70;;;3.30;;
78794;SDS011;68144;50.892;3.064;2024-01-15T00:14:06;6.50;;;3.30;;
78794;SDS011;68144;50.892;3.064;2024-01-15T00:14:37;5.20;;;3.60;;
78794;SDS011;68144;50.892;3.064;2024-01-15T00:15:08;7.10;;;3.70;;
78794;SDS011;68144;50.892;3.064;2024-01-15T00:15:39;5.30;;;3.20;;
78794;SDS011;68144;50.892;3.064;2024-01-15T00:16:10;6.20;;;3.80;;
78794;SDS011;68144;50.892;3.064;2024-01-15T00:16:41;6.50;;;2.90;;
78794;SDS011;68144;50.892;3.064;2024-01-15T00:17:11;7.40;;;3.40;;
78794;SDS011;68144;50.892;3.064;2024-01-15T00:17:42;4.40;;;3.90;;
78794;SDS011;68144;50.892;3.064;2024-01-15T00:18:13;6.80;;;4.00;;
78794;SDS011;68144;50.892;3.064;2024-01-15T00:18:43;4.90;;;2.90;;
78794;SDS011;68144;50.892;3.064;2024-01-15T00:19:14;7.00;;;3.50;;
78794;SDS011;68144;50.892;3.064;2024-01-15T00:19:45;9.20;;;3.60;;
78794;SDS011;68144;50.892;3.064;2024-01-15T00:20:15;5.90;;;3.50;;
78794;SDS011;68144;50.892;3.064;2024-01-15T00:20:46;6.50;;;4.10;;
78794;SDS011;68144;50.892;3.064;2024-01-15T00:21:17;4.40;;;3.40;;
78794;SDS011;68144;50.892;3.064;2024-01-15T00:21:48;3.40;;;2.80;;
78794;SDS011;68144;50.892;3.064;2024-01-15T00:22:19;7.20;;;3.50;;
78794;SDS011;68144;50.892;3.064;2024-01-15T00:22:50;4.60;;;2.90;;
78794;SDS011;68144;50.892;3.064;2024-01-15T00:23:21;9.10;;;3.30;;
78794;SDS011;68144;50.892;3.064;2024-01-15T00:23:51;6.00;;;3.40;;
78794;SDS011;68144;50.892;3.064;2024-01-15T00:24:22;6.40;;;3.00;;
78794;SDS011;68144;50.892;3.064;2024-01-15T00:24:53;7.70;;;3.10;;
78794;SDS011;68144;50.892;3.064;2024-01-15T00:25:23;6.70;;;3.60;;
78794;SDS011;68144;50.892;3.064;2024-01-15T00:25:54;6.00;;;3.60;;
78794;SDS011;68144;50.892;3.064;2024-01-15T00:26:24;5.60;;;3.10;;
78794;SDS011;68144;50.892;3.064;2024-01-15T00:26:54;5.30;;;3.40;;
78794;SDS011;68144;50.892;3.064;2024-01-15T00:27:25;5.80;;;3.40;;
78794;SDS011;68144;50.892;3.064;2024-01-15T00:27:56;5.20;;;2.90;;
78794;SDS011;68144;50.892;3.064;2024-01-15T00:28:26;5.90;;;2.70;;
78794;SDS011;68144;50.892;3.064;2024-01-15T00:28:56;4.60;;;2.90;;
78794;SDS011;68144;50.892;3.064;2024-01-15T00:29:27;7.10;;;3.60;;
78794;SDS011;68144;50.892;3.064;2024-01-15T00:29:58;5.10;;;3.00;;
78794;SDS011;68144;50.892;3.064;2024-01-15T00:30:28;4.90;;;2.70;;
78794;SDS011;68144;50.892;3.064;2024-01-15T00:30:59;4.70;;;2.80;;
78794;SDS011;68144;50.892;3.064;2024-01-15T00:31:29;7.30;;;2.80;;
78794;SDS011;68144;50.892;3.064;2024-01-15T00:32:00;3.30;;;2.60;;
78794;SDS011;68144;50.892;3.064;2024-01-15T00:32:31;6.50;;;2.70;;
78794;SDS011;68144;50.892;3.064;2024-01-15T00:33:01;4.50;;;3.10;;
78794;SDS011;68144;50.892;3.064;2024-01-15T00:33:32;3.60;;;2.10;;
78794;SDS011;68144;50.892;3.064;2024-01-15T00:34:03;6.20;;;2.90;;
78794;SDS011;68144;50.892;3.064;2024-01-15T00:34:33;6.40;;;2.90;;
78794;SDS011;68144;50.892;3.064;2024-01-15T00:35:04;5.60;;;3.30;;
78794;SDS011;68144;50.892;3.064;2024-01-15T00:35:35;4.00;;;2.80;;
78794;SDS011;68144;50.892;3.064;2024-01-15T00:36:05;5.60;;;2.80;;
78794;SDS011;68144;50.892;3.064;2024-01-15T00:36:36;6.00;;;3.90;;
78794;SDS011;68144;50.892;3.064;2024-01-15T00:37:07;5.20;;;2.20;;
78794;SDS011;68144;50.892;3.064;2024-01-15T00:37:37;4.00;;;2.40;;
78794;SDS011;68144;50.892;3.064;2024-01-15T00:38:08;4.60;;;2.50;;
78794;SDS011;68144;50.892;3.064;2024-01-15T00:38:38;5.10;;;3.10;;
78794;SDS011;68144;50.892;3.064;2024-01-15T00:39:09;7.00;;;2.80;;
78794;SDS011;68144;50.892;3.064;2024-01-15T00:40:11;4.10;;;2.20;;
78794;SDS011;68144;50.892;3.064;2024-01-15T00:40:41;6.80;;;2.90;;
78794;SDS011;68144;50.892;3.064;2024-01-15T00:41:12;5.40;;;2.30;;
78794;SDS011;68144;50.892;3.064;2024-01-15T00:41:43;4.10;;;2.70;;
78794;SDS011;68144;50.892;3.064;2024-01-15T00:42:13;6.50;;;3.40;;
78794;SDS011;68144;50.892;3.064;2024-01-15T00:42:44;3.60;;;2.20;;
78794;SDS011;68144;50.892;3.064;2024-01-15T00:43:14;8.30;;;2.60;;
78794;SDS011;68144;50.892;3.064;2024-01-15T00:43:48;5.10;;;2.40;;
78794;SDS011;68144;50.892;3.064;2024-01-15T00:44:21;6.00;;;2.70;;
78794;SDS011;68144;50.892;3.064;2024-01-15T00:44:51;5.70;;;2.10;;
78794;SDS011;68144;50.892;3.064;2024-01-15T00:45:22;6.50;;;2.20;;
78794;SDS011;68144;50.892;3.064;2024-01-15T00:45:52;5.70;;;1.90;;
78794;SDS011;68144;50.892;3.064;2024-01-15T00:46:23;5.70;;;2.20;;
78794;SDS011;68144;50.892;3.064;2024-01-15T00:46:53;4.60;;;1.90;;
78794;SDS011;68144;50.892;3.064;2024-01-15T00:47:24;2.40;;;1.70;;
78794;SDS011;68144;50.892;3.064;2024-01-15T00:47:55;4.40;;;2.70;;
78794;SDS011;68144;50.892;3.064;2024-01-15T00:48:26;3.70;;;1.70;;
78794;SDS011;68144;50.892;3.064;2024-01-15T00:48:57;5.10;;;2.80;;
78794;SDS011;68144;50.892;3.064;2024-01-15T00:49:27;5.00;;;2.80;;
78794;SDS011;68144;50.892;3.064;2024-01-15T00:49:58;4.90;;;2.50;;
78794;SDS011;68144;50.892;3.064;2024-01-15T00:50:28;4.30;;;2.00;;
78794;SDS011;68144;50.892;3.064;2024-01-15T00:50:59;5.50;;;2.20;;
78794;SDS011;68144;50.892;3.064;2024-01-15T00:51:29;4.50;;;1.90;;
78794;SDS011;68144;50.892;3.064;2024-01-15T00:52:00;5.90;;;2.00;;
78794;SDS011;68144;50.892;3.064;2024-01-15T00:52:30;5.00;;;2.10;;
78794;SDS011;68144;50.892;3.064;2024-01-15T00:53:01;4.30;;;1.80;;
78794;SDS011;68144;50.892;3.064;2024-01-15T00:53:31;5.80;;;1.90;;
78794;SDS011;68144;50.892;3.064;2024-01-15T00:54:02;5.50;;;2.00;;
78794;SDS011;68144;50.892;3.064;2024-01-15T00:54:32;7.80;;;2.70;;
78794;SDS011;68144;50.892;3.064;2024-01-15T00:55:03;5.00;;;2.10;;
78794;SDS011;68144;50.892;3.064;2024-01-15T00:55:34;4.20;;;1.50;;
78794;SDS011;68144;50.892;3.064;2024-01-15T00:56:04;6.20;;;2.00;;
78794;SDS011;68144;50.892;3.064;2024-01-15T00:56:36;4.70;;;1.90;;
78794;SDS011;68144;50.892;3.064;2024-01-15T00:57:07;4.90;;;2.30;;
78794;SDS011;68144;50.892;3.064;2024-01-15T00:57:37;5.60;;;2.10;;
78794;SDS011;68144;50.892;3.064;2024-01-15T00:58:08;6.00;;;2.00;;
78794;SDS011;68144;50.892;3.064;2024-01-15T00:58:39;7.10;;;1.90;;
78794;SDS011;68144;50.892;3.064;2024-01-15T00:59:09;5.50;;;1.80;;
78794;SDS011;68144;50.892;3.064;2024-01-15T00:59:40;5.80;;;2.40;;
78794;SDS011;68144;50.892;3.064;2024-01-15T01:00:11;3.40;;;2.00;;
78794;SDS011;68144;50.892;3.064;2024-01-15T01:00:42;5.70;;;2.50;;
78794;SDS011;68144;50.892;3.064;2024-01-15T01:01:12;3.30;;;1.80;;
78794;SDS011;68144;50.892;3.064;2024-01-15T01:01:43;6.90;;;1.80;;
78794;SDS011;68144;50.892;3.064;2024-01-15T01:02:16;4.40;;;2.30;;
78794;SDS011;68144;50.892;3.064;2024-01-15T01:02:46;5.80;;;2.10;;
78794;SDS011;68144;50.892;3.064;2024-01-15T01:03:16;5.60;;;1.80;;
78794;SDS011;68144;50.892;3.064;2024-01-15T01:03:47;5.40;;;2.00;;
78794;SDS011;68144;50.892;3.064;2024-01-15T01:04:17;3.60;;;1.50;;
78794;SDS011;68144;50.892;3.064;2024-01-15T01:04:48;3.80;;;1.80;;
78794;SDS011;68144;50.892;3.064;2024-01-15T01:05:18;3.90;;;1.60;;
78794;SDS011;68144;50.892;3.064;2024-01-15T01:05:49;3.70;;;1.80;;
78794;SDS011;68144;50.892;3.064;2024-01-15T01:06:20;5.50;;;2.00;;
78794;SDS011;68144;50.892;3.064;2024-01-15T01:06:50;5.00;;;1.90;;
78794;SDS011;68144;50.892;3.064;2024-01-15T01:07:21;3.40;;;1.60;;
78794;SDS011;68144;50.892;3.064;2024-01-15T01:07:51;6.60;;;1.80;;
78794;SDS011;68144;50.892;3.064;2024-01-15T01:08:21;6.10;;;2.50;;
78794;SDS011;68144;50.892;3.064;2024-01-15T01:08:52;3.60;;;1.40;;
78794;SDS011;68144;50.892;3.064;2024-01-15T01:09:22;6.00;;;1.90;;
78794;SDS011;68144;50.892;3.064;2024-01-15T01:09:53;3.40;;;1.90;;
78794;SDS011;68144;50.892;3.064;2024-01-15T01:10:24;4.90;;;2.30;;
78794;SDS011;68144;50.892;3.064;2024-01-15T01:10:55;5.60;;;1.80;;
78794;SDS011;68144;50.892;3.064;2024-01-15T01:11:26;5.40;;;1.70;;
78794;SDS011;68144;50.892;3.064;2024-01-15T01:11:57;5.50;;;2.00;;
78794;SDS011;68144;50.892;3.064;2024-01-15T01:12:27;5.70;;;1.80;;
78794;SDS011;68144;50.892;3.064;2024-01-15T01:13:00;4.80;;;1.80;;
78794;SDS011;68144;50.892;3.064;2024-01-15T01:13:30;6.20;;;2.10;;
78794;SDS011;68144;50.892;3.064;2024-01-15T01:14:00;5.90;;;2.90;;
78794;SDS011;68144;50.892;3.064;2024-01-15T01:14:31;5.40;;;2.50;;
78794;SDS011;68144;50.892;3.064;2024-01-15T01:15:02;4.30;;;1.50;;
78794;SDS011;68144;50.892;3.064;2024-01-15T01:15:33;6.20;;;1.90;;
78794;SDS011;68144;50.892;3.064;2024-01-15T01:16:03;3.50;;;2.50;;
78794;SDS011;68144;50.892;3.064;2024-01-15T01:16:34;4.20;;;1.90;;
78794;SDS011;68144;50.892;3.064;2024-01-15T01:17:08;4.10;;;1.50;;
78794;SDS011;68144;50.892;3.064;2024-01-15T01:17:39;2.50;;;1.40;;
78794;SDS011;68144;50.892;3.064;2024-01-15T01:18:09;3.00;;;1.40;;
78794;SDS011;68144;50.892;3.064;2024-01-15T01:18:40;4.50;;;1.70;;
78794;SDS011;68144;50.892;3.064;2024-01-15T01:19:10;4.60;;;1.80;;
78794;SDS011;68144;50.892;3.064;2024-01-15T01:19:41;4.00;;;1.40;;
78794;SDS011;68144;50.892;3.064;2024-01-15T01:20:11;3.80;;;1.90;;
78794;SDS011;68144;50.892;3.064;2024-01-15T01:20:42;6.50;;;1.50;;
78794;SDS011;68144;50.892;3.064;2024-01-15T01:21:12;4.10;;;2.00;;
78794;SDS011;68144;50.892;3.064;2024-01-15T01:21:43;4.60;;;2.30;;
78794;SDS011;68144;50.892;3.064;2024-01-15T01:22:13;3.80;;;1.50;;
78794;SDS011;68144;50.892;3.064;2024-01-15T01:22:44;3.00;;;1.50;;
78794;SDS011;68144;50.892;3.064;2024-01-15T01:23:14;6.10;;;1.70;;
78794;SDS011;68144;50.892;3.064;2024-01-15T01:23:45;4.10;;;1.70;;
78794;SDS011;68144;50.892;3.064;2024-01-15T01:24:16;2.40;;;2.20;;
78794;SDS011;68144;50.892;3.064;2024-01-15T01:24:46;6.10;;;1.80;;
78794;SDS011;68144;50.892;3.064;2024-01-15T01:25:17;5.80;;;1.60;;
78794;SDS011;68144;50.892;3.064;2024-01-15T01:25:48;3.80;;;1.50;;
78794;SDS011;68144;50.892;3.064;2024-01-15T01:26:18;2.50;;;1.20;;
78794;SDS011;68144;50.892;3.064;2024-01-15T01:26:49;4.70;;;1.80;;
78794;SDS011;68144;50.892;3.064;2024-01-15T01:27:19;4.10;;;1.90;;
78794;SDS011;68144;50.892;3.064;2024-01-15T01:27:50;4.80;;;2.00;;
78794;SDS011;68144;50.892;3.064;2024-01-15T01:28:21;5.70;;;1.60;;
78794;SDS011;68144;50.892;3.064;2024-01-15T01:28:51;6.90;;;2.00;;
78794;SDS011;68144;50.892;3.064;2024-01-15T01:29:22;5.40;;;1.30;;
78794;SDS011;68144;50.892;3.064;2024-01-15T01:29:53;4.70;;;1.60;;
78794;SDS011;68144;50.892;3.064;2024-01-15T01:30:23;4.70;;;1.60;;
78794;SDS011;68144;50.892;3.064;2024-01-15T01:30:54;4.00;;;1.40;;
78794;SDS011;68144;50.892;3.064;2024-01-15T01:31:25;5.30;;;1.80;;
78794;SDS011;68144;50.892;3.064;2024-01-15T01:31:55;5.00;;;2.60;;
78794;SDS011;68144;50.892;3.064;2024-01-15T01:32:26;4.30;;;2.00;;
78794;SDS011;68144;50.892;3.064;2024-01-15T01:32:57;4.90;;;1.40;;
78794;SDS011;68144;50.892;3.064;2024-01-15T01:33:28;3.70;;;1.90;;
78794;SDS011;68144;50.892;3.064;2024-01-15T01:33:58;4.20;;;1.50;;
78794;SDS011;68144;50.892;3.064;2024-01-15T01:34:29;5.80;;;1.80;;
78794;SDS011;68144;50.892;3.064;2024-01-15T01:35:00;3.30;;;1.90;;
78794;SDS011;68144;50.892;3.064;2024-01-15T01:35:30;4.70;;;1.70;;
78794;SDS011;68144;50.892;3.064;2024-01-15T01:36:01;4.60;;;1.40;;
78794;SDS011;68144;50.892;3.064;2024-01-15T01:36:37;3.10;;;1.90;;
78794;SDS011;68144;50.892;3.064;2024-01-15T01:37:08;4.60;;;1.80;;
78794;SDS011;68144;50.892;3.064;2024-01-15T01:37:39;6.10;;;2.10;;
78794;SDS011;68144;50.892;3.064;2024-01-15T01:38:10;7.00;;;1.50;;
78794;SDS011;68144;50.892;3.064;2024-01-15T01:38:40;4.00;;;2.20;;
78794;SDS011;68144;50.892;3.064;2024-01-15T01:39:11;5.20;;;1.90;;
78794;SDS011;68144;50.892;3.064;2024-01-15T01:39:42;5.20;;;2.70;;
78794;SDS011;68144;50.892;3.064;2024-01-15T01:40:44;3.70;;;2.00;;
78794;SDS011;68144;50.892;3.064;2024-01-15T01:41:14;4.00;;;1.60;;
78794;SDS011;68144;50.892;3.064;2024-01-15T01:41:45;3.30;;;2.90;;
78794;SDS011;68144;50.892;3.064;2024-01-15T01:42:16;4.60;;;1.70;;
78794;SDS011;68144;50.892;3.064;2024-01-15T01:42:46;6.00;;;1.70;;
78794;SDS011;68144;50.892;3.064;2024-01-15T01:43:17;9.10;;;2.10;;
78794;SDS011;68144;50.892;3.064;2024-01-15T01:43:48;5.50;;;1.50;;
78794;SDS011;68144;50.892;3.064;2024-01-15T01:44:18;3.40;;;1.70;;
78794;SDS011;68144;50.892;3.064;2024-01-15T01:44:49;3.70;;;2.00;;
78794;SDS011;68144;50.892;3.064;2024-01-15T01:45:19;2.20;;;1.70;;
78794;SDS011;68144;50.892;3.064;2024-01-15T01:45:50;6.20;;;2.20;;
78794;SDS011;68144;50.892;3.064;2024-01-15T01:46:20;5.80;;;1.90;;
78794;SDS011;68144;50.892;3.064;2024-01-15T01:46:50;2.60;;;1.40;;
78794;SDS011;68144;50.892;3.064;2024-01-15T01:47:21;6.20;;;1.90;;
78794;SDS011;68144;50.892;3.064;2024-01-15T01:47:51;3.50;;;1.80;;
78794;SDS011;68144;50.892;3.064;2024-01-15T01:48:22;3.40;;;1.60;;
78794;SDS011;68144;50.892;3.064;2024-01-15T01:48:55;5.90;;;1.80;;
78794;SDS011;68144;50.892;3.064;2024-01-15T01:49:29;5.10;;;1.70;;
78794;SDS011;68144;50.892;3.064;2024-01-15T01:50:00;4.70;;;1.70;;
78794;SDS011;68144;50.892;3.064;2024-01-15T01:50:32;5.20;;;2.00;;
78794;SDS011;68144;50.892;3.064;2024-01-15T01:51:02;4.60;;;2.00;;
78794;SDS011;68144;50.892;3.064;2024-01-15T01:51:34;4.60;;;2.00;;
78794;SDS011;68144;50.892;3.064;2024-01-15T01:52:06;5.70;;;2.90;;
78794;SDS011;68144;50.892;3.064;2024-01-15T01:52:40;4.90;;;2.20;;
78794;SDS011;68144;50.892;3.064;2024-01-15T01:53:11;7.40;;;2.30;;
78794;SDS011;68144;50.892;3.064;2024-01-15T01:53:41;5.40;;;1.80;;
78794;SDS011;68144;50.892;3.064;2024-01-15T01:54:11;4.40;;;1.80;;
78794;SDS011;68144;50.892;3.064;2024-01-15T01:54:44;4.40;;;2.50;;
78794;SDS011;68144;50.892;3.064;2024-01-15T01:55:14;10.30;;;2.20;;
78794;SDS011;68144;50.892;3.064;2024-01-15T01:55:45;7.80;;;2.20;;
78794;SDS011;68144;50.892;3.064;2024-01-15T01:56:16;7.60;;;2.40;;
78794;SDS011;68144;50.892;3.064;2024-01-15T01:56:48;5.90;;;2.10;;
78794;SDS011;68144;50.892;3.064;2024-01-15T01:57:19;5.50;;;2.30;;
78794;SDS011;68144;50.892;3.064;2024-01-15T01:57:49;5.10;;;1.90;;
78794;SDS011;68144;50.892;3.064;2024-01-15T01:58:20;4.50;;;2.30;;
78794;SDS011;68144;50.892;3.064;2024-01-15T01:58:51;5.00;;;2.10;;
78794;SDS011;68144;50.892;3.064;2024-01-15T01:59:21;6.10;;;2.90;;
78794;SDS011;68144;50.892;3.064;2024-01-15T01:59:53;4.00;;;2.00;;
78794;SDS011;68144;50.892;3.064;2024-01-15T02:00:24;4.10;;;1.90;;
78794;SDS011;68144;50.892;3.064;2024-01-15T02:00:54;4.30;;;2.20;;
78794;SDS011;68144;50.892;3.064;2024-01-15T02:01:25;5.80;;;1.90;;
78794;SDS011;68144;50.892;3.064;2024-01-15T02:01:55;6.20;;;2.30;;
78794;SDS011;68144;50.892;3.064;2024-01-15T02:02:26;4.40;;;2.30;;
78794;SDS011;68144;50.892;3.064;2024-01-15T02:02:56;4.60;;;2.40;;
78794;SDS011;68144;50.892;3.064;2024-01-15T02:03:27;5.60;;;2.40;;
78794;SDS011;68144;50.892;3.064;2024-01-15T02:03:58;7.00;;;2.30;;
78794;SDS011;68144;50.892;3.064;2024-01-15T02:04:29;4.60;;;2.70;;
78794;SDS011;68144;50.892;3.064;2024-01-15T02:05:00;6.40;;;2.60;;
78794;SDS011;68144;50.892;3.064;2024-01-15T02:05:30;5.00;;;1.90;;
78794;SDS011;68144;50.892;3.064;2024-01-15T02:06:01;9.90;;;2.80;;
78794;SDS011;68144;50.892;3.064;2024-01-15T02:06:31;6.00;;;2.30;;
78794;SDS011;68144;50.892;3.064;2024-01-15T02:07:02;8.50;;;3.50;;
78794;SDS011;68144;50.892;3.064;2024-01-15T02:07:34;7.60;;;2.30;;
78794;SDS011;68144;50.892;3.064;2024-01-15T02:08:05;11.20;;;2.60;;
78794;SDS011;68144;50.892;3.064;2024-01-15T02:08:36;3.50;;;2.40;;
78794;SDS011;68144;50.892;3.064;2024-01-15T02:09:07;2.60;;;2.40;;
78794;SDS011;68144;50.892;3.064;2024-01-15T02:09:38;5.20;;;3.00;;
78794;SDS011;68144;50.892;3.064;2024-01-15T02:10:08;4.80;;;2.40;;
78794;SDS011;68144;50.892;3.064;2024-01-15T02:10:39;3.20;;;2.00;;
78794;SDS011;68144;50.892;3.064;2024-01-15T02:11:10;3.20;;;2.00;;
78794;SDS011;68144;50.892;3.064;2024-01-15T02:11:46;9.80;;;2.30;;
78794;SDS011;68144;50.892;3.064;2024-01-15T02:12:17;5.50;;;2.80;;
78794;SDS011;68144;50.892;3.064;2024-01-15T02:12:48;6.60;;;2.20;;
78794;SDS011;68144;50.892;3.064;2024-01-15T02:13:19;6.60;;;3.50;;
78794;SDS011;68144;50.892;3.064;2024-01-15T02:13:50;6.00;;;2.90;;
78794;SDS011;68144;50.892;3.064;2024-01-15T02:14:21;8.50;;;2.80;;
78794;SDS011;68144;50.892;3.064;2024-01-15T02:14:52;5.70;;;2.60;;
78794;SDS011;68144;50.892;3.064;2024-01-15T02:15:22;5.00;;;2.50;;
78794;SDS011;68144;50.892;3.064;2024-01-15T02:15:53;4.90;;;2.60;;
78794;SDS011;68144;50.892;3.064;2024-01-15T02:16:23;6.20;;;2.50;;
78794;SDS011;68144;50.892;3.064;2024-01-15T02:16:54;5.40;;;2.70;;
78794;SDS011;68144;50.892;3.064;2024-01-15T02:17:25;6.20;;;2.80;;
78794;SDS011;68144;50.892;3.064;2024-01-15T02:18:02;6.10;;;2.70;;
78794;SDS011;68144;50.892;3.064;2024-01-15T02:18:42;5.20;;;2.60;;
78794;SDS011;68144;50.892;3.064;2024-01-15T02:19:17;5.30;;;2.40;;
78794;SDS011;68144;50.892;3.064;2024-01-15T02:19:49;4.60;;;2.70;;
78794;SDS011;68144;50.892;3.064;2024-01-15T02:20:50;5.10;;;2.50;;
78794;SDS011;68144;50.892;3.064;2024-01-15T02:21:20;5.80;;;2.60;;
78794;SDS011;68144;50.892;3.064;2024-01-15T02:21:51;5.70;;;2.70;;
78794;SDS011;68144;50.892;3.064;2024-01-15T02:22:21;5.50;;;2.70;;
78794;SDS011;68144;50.892;3.064;2024-01-15T02:22:52;5.50;;;2.50;;
78794;SDS011;68144;50.892;3.064;2024-01-15T02:23:22;6.30;;;3.10;;
78794;SDS011;68144;50.892;3.064;2024-01-15T02:23:53;6.10;;;3.00;;
78794;SDS011;68144;50.892;3.064;2024-01-15T02:24:23;5.20;;;3.10;;
78794;SDS011;68144;50.892;3.064;2024-01-15T02:24:54;5.60;;;2.70;;
78794;SDS011;68144;50.892;3.064;2024-01-15T02:25:24;7.50;;;2.30;;
78794;SDS011;68144;50.892;3.064;2024-01-15T02:25:55;5.10;;;2.40;;
78794;SDS011;68144;50.892;3.064;2024-01-15T02:26:25;9.40;;;2.50;;
78794;SDS011;68144;50.892;3.064;2024-01-15T02:26:56;8.20;;;2.80;;
78794;SDS011;68144;50.892;3.064;2024-01-15T02:27:27;7.40;;;2.40;;
78794;SDS011;68144;50.892;3.064;2024-01-15T02:27:58;5.20;;;2.40;;
78794;SDS011;68144;50.892;3.064;2024-01-15T02:28:28;6.90;;;2.20;;
78794;SDS011;68144;50.892;3.064;2024-01-15T02:28:59;6.10;;;5.00;;
78794;SDS011;68144;50.892;3.064;2024-01-15T02:29:30;5.10;;;2.40;;
78794;SDS011;68144;50.892;3.064;2024-01-15T02:30:01;4.90;;;2.40;;
78794;SDS011;68144;50.892;3.064;2024-01-15T02:30:32;5.40;;;2.10;;
78794;SDS011;68144;50.892;3.064;2024-01-15T02:31:03;5.20;;;2.20;;
78794;SDS011;68144;50.892;3.064;2024-01-15T02:31:33;3.90;;;2.20;;
78794;SDS011;68144;50.892;3.064;2024-01-15T02:32:05;6.60;;;2.70;;
78794;SDS011;68144;50.892;3.064;2024-01-15T02:32:36;5.30;;;2.50;;
78794;SDS011;68144;50.892;3.064;2024-01-15T02:33:06;6.00;;;2.60;;
78794;SDS011;68144;50.892;3.064;2024-01-15T02:33:37;5.50;;;2.70;;
78794;SDS011;68144;50.892;3.064;2024-01-15T02:34:08;5.90;;;2.50;;
78794;SDS011;68144;50.892;3.064;2024-01-15T02:34:38;5.20;;;2.90;;
78794;SDS011;68144;50.892;3.064;2024-01-15T02:35:09;6.30;;;2.50;;
78794;SDS011;68144;50.892;3.064;2024-01-15T02:35:39;7.80;;;3.20;;
78794;SDS011;68144;50.892;3.064;2024-01-15T02:36:10;6.20;;;2.70;;
78794;SDS011;68144;50.892;3.064;2024-01-15T02:36:40;5.80;;;2.40;;
78794;SDS011;68144;50.892;3.064;2024-01-15T02:37:11;5.00;;;2.20;;
78794;SDS011;68144;50.892;3.064;2024-01-15T02:37:41;4.20;;;2.60;;
78794;SDS011;68144;50.892;3.064;2024-01-15T02:38:12;5.30;;;2.70;;
78794;SDS011;68144;50.892;3.064;2024-01-15T02:38:42;8.70;;;2.80;;
78794;SDS011;68144;50.892;3.064;2024-01-15T02:39:12;4.50;;;2.20;;
78794;SDS011;68144;50.892;3.064;2024-01-15T02:39:43;7.90;;;2.30;;
78794;SDS011;68144;50.892;3.064;2024-01-15T02:40:14;5.30;;;2.30;;
78794;SDS011;68144;50.892;3.064;2024-01-15T02:40:44;4.60;;;2.20;;
78794;SDS011;68144;50.892;3.064;2024-01-15T02:41:15;5.70;;;2.80;;
78794;SDS011;68144;50.892;3.064;2024-01-15T02:41:46;5.00;;;2.50;;
78794;SDS011;68144;50.892;3.064;2024-01-15T02:42:16;6.20;;;2.50;;
78794;SDS011;68144;50.892;3.064;2024-01-15T02:42:47;4.90;;;2.30;;
78794;SDS011;68144;50.892;3.064;2024-01-15T02:43:17;6.50;;;2.90;;
78794;SDS011;68144;50.892;3.064;2024-01-15T02:43:49;6.80;;;2.70;;
78794;SDS011;68144;50.892;3.064;2024-01-15T02:44:19;5.90;;;3.20;;
78794;SDS011;68144;50.892;3.064;2024-01-15T02:44:50;5.00;;;3.30;;
78794;SDS011;68144;50.892;3.064;2024-01-15T02:45:21;8.50;;;3.00;;
78794;SDS011;68144;50.892;3.064;2024-01-15T02:45:52;3.40;;;3.00;;
78794;SDS011;68144;50.892;3.064;2024-01-15T02:46:22;5.60;;;2.30;;
78794;SDS011;68144;50.892;3.064;2024-01-15T02:46:53;4.30;;;2.60;;
78794;SDS011;68144;50.892;3.064;2024-01-15T02:47:23;5.50;;;3.50;;
78794;SDS011;68144;50.892;3.064;2024-01-15T02:47:54;6.10;;;2.70;;
78794;SDS011;68144;50.892;3.064;2024-01-15T02:48:25;5.30;;;2.60;;
78794;SDS011;68144;50.892;3.064;2024-01-15T02:48:56;4.40;;;2.70;;
78794;SDS011;68144;50.892;3.064;2024-01-15T02:49:26;4.80;;;2.70;;
78794;SDS011;68144;50.892;3.064;2024-01-15T02:49:57;5.20;;;2.40;;
78794;SDS011;68144;50.892;3.064;2024-01-15T02:50:27;4.70;;;2.30;;
78794;SDS011;68144;50.892;3.064;2024-01-15T02:50:58;4.40;;;2.70;;
78794;SDS011;68144;50.892;3.064;2024-01-15T02:51:28;5.50;;;2.70;;
78794;SDS011;68144;50.892;3.064;2024-01-15T02:51:59;7.90;;;2.80;;
78794;SDS011;68144;50.892;3.064;2024-01-15T02:52:29;8.40;;;2.10;;
78794;SDS011;68144;50.892;3.064;2024-01-15T02:53:00;4.10;;;2.00;;
78794;SDS011;68144;50.892;3.064;2024-01-15T02:53:31;5.60;;;2.30;;
78794;SDS011;68144;50.892;3.064;2024-01-15T02:54:01;9.30;;;2.80;;
78794;SDS011;68144;50.892;3.064;2024-01-15T02:54:32;4.70;;;2.00;;
78794;SDS011;68144;50.892;3.064;2024-01-15T02:55:03;6.30;;;2.50;;
78794;SDS011;68144;50.892;3.064;2024-01-15T02:55:34;4.10;;;2.40;;
78794;SDS011;68144;50.892;3.064;2024-01-15T02:56:04;6.50;;;2.20;;
78794;SDS011;68144;50.892;3.064;2024-01-15T02:56:35;5.80;;;2.30;;
78794;SDS011;68144;50.892;3.064;2024-01-15T02:57:05;5.40;;;2.30;;
78794;SDS011;68144;50.892;3.064;2024-01-15T02:57:35;9.40;;;2.60;;
78794;SDS011;68144;50.892;3.064;2024-01-15T02:58:06;4.30;;;2.10;;
78794;SDS011;68144;50.892;3.064;2024-01-15T02:58:37;4.10;;;2.40;;
78794;SDS011;68144;50.892;3.064;2024-01-15T02:59:07;4.70;;;2.30;;
78794;SDS011;68144;50.892;3.064;2024-01-15T02:59:38;5.90;;;2.50;;
78794;SDS011;68144;50.892;3.064;2024-01-15T03:00:08;7.20;;;2.80;;
78794;SDS011;68144;50.892;3.064;2024-01-15T03:00:39;7.80;;;2.50;;
78794;SDS011;68144;50.892;3.064;2024-01-15T03:01:10;5.70;;;3.10;;
78794;SDS011;68144;50.892;3.064;2024-01-15T03:01:40;6.30;;;2.60;;
78794;SDS011;68144;50.892;3.064;2024-01-15T03:02:11;6.70;;;2.70;;
78794;SDS011;68144;50.892;3.064;2024-01-15T03:02:44;6.90;;;2.70;;
78794;SDS011;68144;50.892;3.064;2024-01-15T03:03:15;6.40;;;2.20;;
78794;SDS011;68144;50.892;3.064;2024-01-15T03:03:45;5.40;;;2.50;;
78794;SDS011;68144;50.892;3.064;2024-01-15T03:04:16;4.80;;;2.60;;
78794;SDS011;68144;50.892;3.064;2024-01-15T03:04:47;4.30;;;2.20;;
78794;SDS011;68144;50.892;3.064;2024-01-15T03:05:17;4.70;;;2.60;;
78794;SDS011;68144;50.892;3.064;2024-01-15T03:05:48;4.40;;;2.50;;
78794;SDS011;68144;50.892;3.064;2024-01-15T03:06:18;4.40;;;2.60;;
78794;SDS011;68144;50.892;3.064;2024-01-15T03:06:49;5.00;;;2.30;;
78794;SDS011;68144;50.892;3.064;2024-01-15T03:07:19;4.70;;;2.50;;